Latest Coastal Weather Observations for Marion Reef

IDQ60701

Issued at 7:45 am EST Thursday 17 April 2014 (issued every 10 minutes, with the page automatically refreshed every 10 minutes)

About coastal observations | Map of coastal stations | Coastal observations for QLD | Marine services | Other Formats
Station Details ID: 200704 Name: MARION REEF Lat: -19.10 Lon: 152.39 Height: 2.0 m
Data from the previous 72 hours. | See also: Recent months for locations in Queensland
Date/Time
EST
Temp

°C
Wind Pressure Rain
since 9am
mm
Weather Cloud Vis
km
Sea
Height
m
Swell
Dir
 
Speed
knots
Gust
knots
hPa Trend Height
m
Period
s
Dir
17/07:30am 26.1 ESE 16 18 1015.3 - - - - - - - - -
17/07:00am 25.9 ESE 17 20 1014.9 - - - - - - - - -
17/06:30am 26.0 ESE 17 20 1014.6 - - - - - - - - -
17/06:00am 25.9 ESE 17 19 1014.3 - - - - - - - - -
17/05:30am 26.0 ESE 17 20 1014.0 - - - - - - - - -
17/05:00am 25.8 ESE 17 19 1013.6 - - - - - - - - -
17/04:30am 25.9 ESE 18 20 1013.5 - - - - - - - - -
17/04:00am 26.1 ESE 17 21 1013.2 - - - - - - - - -
17/03:30am 25.9 E 18 20 1013.3 - - - - - - - - -
17/03:00am 25.9 E 16 19 1013.5 - - - - - - - - -
17/02:30am 25.8 E 16 19 1013.6 - - - - - - - - -
17/02:00am 25.9 E 16 20 1013.7 - - - - - - - - -
17/01:30am 25.9 E 16 19 1013.9 - - - - - - - - -
17/01:00am 26.0 E 17 21 1014.1 - - - - - - - - -
17/12:30am 26.2 E 16 19 1014.5 - - - - - - - - -
17/12:00am 26.1 E 16 19 1014.5 - - - - - - - - -
 
Date/Time
EST
Temp

°C
Wind Pressure Rain
since 9am
mm
Weather Cloud Vis
km
Sea
Height
m
Swell
Dir
 
Speed
knots
Gust
knots
hPa Trend Height
m
Period
s
Dir
16/11:30pm 26.2 ESE 18 21 1014.8 - - - - - - - - -
16/11:00pm 26.2 ESE 17 20 1014.7 - - - - - - - - -
16/10:30pm 26.2 ESE 17 21 1015.0 - - - - - - - - -
16/10:00pm 26.1 ESE 18 21 1014.8 - - - - - - - - -
16/09:30pm 26.2 ESE 18 20 1014.9 - - - - - - - - -
16/09:00pm 26.2 ESE 19 22 1014.7 - - - - - - - - -
16/08:30pm 26.3 ESE 17 20 1014.7 - - - - - - - - -
16/08:00pm 26.1 ESE 17 20 1014.4 - - - - - - - - -
16/07:30pm 26.4 ESE 17 20 1014.0 - - - - - - - - -
16/07:00pm 26.2 ESE 18 22 1013.6 - - - - - - - - -
16/06:30pm 26.2 ESE 18 21 1013.2 - - - - - - - - -
16/06:00pm 26.2 ESE 17 20 1012.9 - - - - - - - - -
16/05:30pm 26.0 SE 18 21 1012.6 - - - - - - - - -
16/05:00pm 26.3 SE 18 20 1012.3 - - - - - - - - -
16/04:30pm 26.3 SE 17 20 1012.0 - - - - - - - - -
16/04:00pm 26.1 SE 16 18 1011.7 - - - - - - - - -
16/03:30pm 26.3 ESE 16 18 1011.9 - - - - - - - - -
16/03:00pm 26.2 ESE 15 17 1011.7 - - - - - - - - -
16/02:30pm 26.1 ESE 15 18 1011.8 - - - - - - - - -
16/02:00pm 26.2 ESE 15 17 1011.8 - - - - - - - - -
16/01:30pm 26.2 ESE 16 19 1012.3 - - - - - - - - -
16/01:00pm 26.2 ESE 16 18 1012.5 - - - - - - - - -
16/12:30pm 26.3 SE 16 18 1012.9 - - - - - - - - -
16/12:00pm 26.4 SE 16 19 1013.1 - - - - - - - - -
16/11:30am 26.4 SE 16 18 1013.7 - - - - - - - - -
16/11:00am 26.6 SE 14 16 1014.0 - - - - - - - - -
16/10:30am 26.5 ESE 15 17 1014.6 - - - - - - - - -
16/10:00am 26.4 SE 17 19 1014.6 - - - - - - - - -
16/09:30am 26.4 SE 16 19 1014.8 - - - - - - - - -
16/09:00am 26.4 SE 17 19 1014.7 - - - - - - - - -
16/08:30am 26.5 SE 17 20 1014.6 - - - - - - - - -
16/08:00am 26.6 SE 18 20 1014.4 - - - - - - - - -
16/07:30am 26.6 ESE 17 19 1014.1 - - - - - - - - -
16/07:00am 26.6 SE 17 21 1013.9 - - - - - - - - -
16/06:30am 26.5 SE 17 19 1013.6 - - - - - - - - -
16/06:00am 26.3 SE 17 19 1013.2 - - - - - - - - -
16/05:30am 26.2 SE 18 21 1012.7 - - - - - - - - -
16/05:00am 26.4 ESE 18 23 1012.2 - - - - - - - - -
16/04:30am 26.0 ESE 14 19 1012.0 - - - - - - - - -
16/04:00am 24.9 ESE 14 16 1012.0 - - - - - - - - -
16/03:30am 24.3 E 16 19 1011.9 - - - - - - - - -
16/03:00am 24.5 E 16 19 1011.9 - - - - - - - - -
16/02:30am 24.3 E 17 20 1012.2 - - - - - - - - -
16/02:00am 24.5 E 19 21 1012.1 - - - - - - - - -
16/01:30am 25.6 ESE 13 15 1012.6 - - - - - - - - -
16/01:00am 25.1 SSE 12 16 1012.8 - - - - - - - - -
16/12:30am 26.0 SE 14 18 1013.2 - - - - - - - - -
16/12:00am 25.8 ESE 14 16 1013.2 - - - - - - - - -
 
Date/Time
EST
Temp

°C
Wind Pressure Rain
since 9am
mm
Weather Cloud Vis
km
Sea
Height
m
Swell
Dir
 
Speed
knots
Gust
knots
hPa Trend Height
m
Period
s
Dir
15/11:30pm 26.0 SE 14 16 1013.6 - - - - - - - - -
15/11:00pm 25.9 SE 17 19 1013.6 - - - - - - - - -
15/10:30pm 26.1 SE 15 19 1013.8 - - - - - - - - -
15/10:00pm 26.5 SE 13 14 1013.8 - - - - - - - - -
15/09:30pm 25.9 SE 16 19 1013.9 - - - - - - - - -
15/09:00pm 26.1 SE 17 19 1013.6 - - - - - - - - -
15/08:30pm 25.5 SE 13 17 1013.3 - - - - - - - - -
15/08:00pm 26.2 SSE 17 19 1013.0 - - - - - - - - -
15/07:00pm 26.5 SSE 16 19 1012.0 - - - - - - - - -
15/06:30pm 26.6 SSE 15 18 1011.4 - - - - - - - - -
15/06:00pm 26.8 SE 16 21 1011.0 - - - - - - - - -
15/05:30pm 26.9 SSE 13 15 1010.9 - - - - - - - - -
15/05:00pm 26.8 SSE 14 16 1010.6 - - - - - - - - -
15/04:30pm 26.9 SSE 14 17 1010.3 - - - - - - - - -
15/04:00pm 26.8 SSE 13 15 1010.1 - - - - - - - - -
15/03:30pm 26.6 SSE 14 16 1009.9 - - - - - - - - -
15/03:00pm 26.5 SSE 12 16 1009.7 - - - - - - - - -
15/02:30pm 26.5 SSE 13 15 1009.8 - - - - - - - - -
15/02:00pm 26.4 SSE 13 15 1009.9 - - - - - - - - -
15/01:30pm 26.4 S 12 14 1010.4 - - - - - - - - -
15/01:00pm 26.6 SSE 13 15 1010.6 - - - - - - - - -
15/12:30pm 26.4 S 12 15 1011.0 - - - - - - - - -
15/12:00pm 26.6 S 13 15 1011.3 - - - - - - - - -
15/11:30am 26.4 S 12 15 1012.0 - - - - - - - - -
15/11:00am 26.4 SSE 12 14 1012.4 - - - - - - - - -
15/10:30am 26.4 S 12 14 1012.7 - - - - - - - - -
15/10:00am 26.3 S 13 15 1012.8 - - - - - - - - -
15/09:30am 26.2 S 14 16 1013.0 - - - - - - - - -
15/09:00am 26.2 S 14 16 1012.8 - - - - - - - - -
15/08:30am 26.1 S 13 16 1012.8 - - - - - - - - -
15/08:00am 26.3 SSE 12 15 1012.6 - - - - - - - - -
15/07:30am 26.3 S 14 16 1012.4 - - - - - - - - -
15/07:00am 26.2 S 14 16 1012.1 - - - - - - - - -
15/06:30am 26.1 S 14 16 1011.7 - - - - - - - - -
15/06:00am 26.0 S 13 15 1011.4 - - - - - - - - -
15/05:30am 26.0 S 14 16 1011.0 - - - - - - - - -
15/05:00am 26.0 S 16 19 1010.9 - - - - - - - - -
15/04:30am 26.0 S 15 17 1010.8 - - - - - - - - -
15/04:00am 25.7 S 16 19 1010.6 - - - - - - - - -
15/03:30am 26.0 S 16 19 1010.5 - - - - - - - - -
15/03:00am 25.9 S 17 20 1010.3 - - - - - - - - -
15/02:30am 25.9 S 14 16 1010.6 - - - - - - - - -
15/02:00am 26.0 S 17 19 1010.7 - - - - - - - - -
15/01:30am 26.1 S 17 20 1010.9 - - - - - - - - -
15/01:00am 26.5 S 14 17 1010.9 - - - - - - - - -
15/12:30am 26.4 S 16 18 1011.3 - - - - - - - - -
15/12:00am 26.4 S 18 20 1011.4 - - - - - - - - -
 
Date/Time
EST
Temp

°C
Wind Pressure Rain
since 9am
mm
Weather Cloud Vis
km
Sea
Height
m
Swell
Dir
 
Speed
knots
Gust
knots
hPa Trend Height
m
Period
s
Dir
14/11:30pm 26.4 S 15 17 1011.8 - - - - - - - - -
14/11:00pm 26.5 S 17 19 1011.7 - - - - - - - - -
14/10:30pm 26.4 S 18 21 1011.8 - - - - - - - - -
14/10:00pm 26.3 SSW 17 20 1011.6 - - - - - - - - -
14/09:30pm 26.5 S 17 20 1011.6 - - - - - - - - -
14/09:00pm 26.3 SSW 18 21 1011.5 - - - - - - - - -
14/08:30pm 25.9 SSW 17 22 1011.3 - - - - - - - - -
14/08:00pm 26.1 SSW 19 23 1011.0 - - - - - - - - -
14/07:30pm 26.3 SSW 18 22 1010.5 - - - - - - - - -
14/07:00pm 26.3 SSW 19 22 1010.0 - - - - - - - - -
14/06:30pm 26.3 SW 20 23 1009.4 - - - - - - - - -
14/06:00pm 26.2 SW 18 22 1009.0 - - - - - - - - -
14/05:30pm 26.2 SW 19 23 1008.6 - - - - - - - - -
14/05:00pm 26.3 SW 20 23 1008.1 - - - - - - - - -
14/04:30pm 26.4 WSW 19 21 1007.8 - - - - - - - - -
14/04:00pm 26.0 WSW 17 19 1007.3 - - - - - - - - -
14/03:30pm 25.7 WSW 19 24 1007.2 - - - - - - - - -
14/03:00pm 26.3 W 19 21 1007.1 - - - - - - - - -
14/02:30pm 26.6 W 20 23 1007.1 - - - - - - - - -
14/02:00pm 26.5 W 19 22 1007.0 - - - - - - - - -
14/01:30pm 26.7 W 20 22 1007.0 - - - - - - - - -
14/01:00pm 26.6 W 20 24 1007.0 - - - - - - - - -
14/12:30pm 26.6 W 20 22 1007.4 - - - - - - - - -
14/12:00pm 26.6 W 20 22 1007.4 - - - - - - - - -
14/11:30am 27.3 WNW 19 23 1007.9 - - - - - - - - -
14/11:00am 27.2 WNW 20 24 1007.9 - - - - - - - - -
14/10:30am 27.1 WNW 21 24 1008.5 - - - - - - - - -
14/10:00am 27.2 WNW 22 25 1008.6 - - - - - - - - -
14/09:30am 26.8 NW 22 25 1008.7 - - - - - - - - -
14/09:00am 26.5 NW 22 26 1008.3 - - - - - - - - -
14/08:30am 26.6 WNW 22 27 1008.2 - - - - - - - - -
14/08:00am 26.5 WNW 21 24 1008.0 - - - - - - - - -

Other Formats:

Comma delimited format used in spreadsheet applications
http://www.bom.gov.au/fwo/IDQ60701/IDQ60701.94298.axf

JavaScript Object Notation format (JSON) in row-major order
http://www.bom.gov.au/fwo/IDQ60701/IDQ60701.94298.json